Elk Grove Village, IL

2:59 AM CST en Marzo 06, 2015 (GMT -0600)
Du Page | Change Station
CLOSE
Current Station
Aeropuerto
Location: Chicago DuPage,
Altura: 758 ft
Estaciones meteorológicas cercanas

Alt 758 ft 41.90 °N, 88.25 °W | Updated 1 hour ago

Parcialmente nublado
Parcialmente nublado
0 ° F
Sensación térmica -10 ° F
N
5
Viento Variable Viento desde SSO

Hoy
Alta -- | Baja -- ° F
--% Posibilidad de precipitaciones
Ayer
Alta -- | Baja -- ° F
Precip. -- pul
6:19 AM 5:47 PM
Luna llena, 100% visible
Presión 30.54 pul
Visibilidad 10.0 Millas
Nubes Despejado
Vientos helados -10 ° F
Punto de rocío -6 ° F
Humedad 76%
Precipitaciones 0.00 pul
Espesor de la nieve No disponible.
UV 0 de una escala de 12
Polen .20 de una escala de 12
Calidad del aire No disponible.
Flu Activity No disponible.
METAR KDPA 060752Z 21004KT 10SM CLR M18/M21 A3049 RMK AO2 SLP342 T11781211

More Conditions Fewer Conditions

Presión 30.54 pul
Visibilidad 10.0 Millas
Nubes Despejado
Vientos helados -10 ° F
Punto de rocío -6 ° F
Humedad 76%
Precipitaciones 0.00 pul
Espesor de la nieve No disponible.
UV 0 de una escala de 12
Polen .20 de una escala de 12
Calidad del aire No disponible.
Flu Activity No disponible.
METAR KDPA 060752Z 21004KT 10SM CLR M18/M21 A3049 RMK AO2 SLP342 T11781211

More Conditions Fewer Conditions

10-Day Weather Forecast

Almanac

Astronomía

Mar. 06, 2015 Salida Puesta
Hora real
Crepúsculo civil
Crepúsculo náutico
Crepúsculo astronómico
Luna
Horas de luz
Horas de luz
Tomorrow will be .
, % of the Moon is Illuminated

Extremos de hoy

Máximos del estado Bajos del estado

Community

WunderPhotos

Upload Photos

1,803,211 ¡fotos cargadas!

WunderBlogs® & News

Nearby

Calidad del aire

  Calidad del aire Índice AQ Contaminante
Not available.

Grosos de nieve

Estación Profundido Altura

Actividad de terremotos

Ciudad Distance Mag. Tiempo y dato
Magnitud mínima muestra es 2,5.

Temperaturas de aguas costeras

Lugar Temperatura

Estaciones meteorológicas cercanas